createdAt,value
2022-08-23T00:00:05.593Z,1013.24
2022-08-23T00:01:03.649Z,1013.27
2022-08-23T00:02:02.883Z,1013.26
2022-08-23T00:03:03.270Z,1013.25
2022-08-23T00:04:03.477Z,1013.25
2022-08-23T00:05:09.576Z,1013.23
2022-08-23T00:06:05.018Z,1013.26
2022-08-23T00:07:04.301Z,1013.22
2022-08-23T00:08:04.629Z,1013.25
2022-08-23T00:09:04.961Z,1013.26
2022-08-23T00:10:05.288Z,1013.24
2022-08-23T00:11:05.621Z,1013.28
2022-08-23T00:12:05.962Z,1013.25
2022-08-23T00:13:06.281Z,1013.28
2022-08-23T00:14:06.627Z,1013.22
2022-08-23T00:15:07.284Z,1013.19
2022-08-23T00:16:07.262Z,1013.25
2022-08-23T00:17:07.463Z,1013.23
2022-08-23T00:18:07.811Z,1013.22
2022-08-23T00:19:08.150Z,1013.17
2022-08-23T00:20:08.508Z,1013.21
2022-08-23T00:21:08.729Z,1013.18
2022-08-23T00:22:09.065Z,1013.24
2022-08-23T00:23:09.296Z,1013.15
2022-08-23T00:24:09.505Z,1013.18
2022-08-23T00:25:09.862Z,1013.14
2022-08-23T00:26:10.236Z,1013.17
2022-08-23T00:27:10.486Z,1013.09
2022-08-23T00:28:12.534Z,1013.11
2022-08-23T00:29:11.037Z,1013.10
2022-08-23T00:30:11.284Z,1013.06
2022-08-23T00:31:11.508Z,1013.06
2022-08-23T00:32:11.709Z,1013.08
2022-08-23T00:33:12.048Z,1013.08
2022-08-23T00:34:12.387Z,1013.07
2022-08-23T00:35:12.726Z,1013.10
2022-08-23T00:36:14.069Z,1013.07
2022-08-23T00:37:13.371Z,1013.13
2022-08-23T00:38:33.723Z,1013.11
2022-08-23T00:39:14.957Z,1013.12
2022-08-23T00:40:14.277Z,1013.10
2022-08-23T00:41:14.506Z,1013.12
2022-08-23T00:42:14.749Z,1013.11
2022-08-23T00:43:15.001Z,1013.13
2022-08-23T00:44:15.222Z,1013.10
2022-08-23T00:45:15.551Z,1013.01
2022-08-23T00:46:15.903Z,1013.02
2022-08-23T00:47:16.142Z,1012.98
2022-08-23T00:48:16.397Z,1012.98
2022-08-23T00:49:16.645Z,1012.92
2022-08-23T00:50:23.864Z,1012.97
2022-08-23T00:51:18.195Z,1012.95
2022-08-23T00:52:17.467Z,1012.95
2022-08-23T00:53:17.795Z,1012.95
2022-08-23T00:54:18.125Z,1012.93
2022-08-23T00:55:18.473Z,1012.98
2022-08-23T00:56:18.839Z,1012.99
2022-08-23T00:57:19.060Z,1012.95
2022-08-23T00:58:19.408Z,1012.93
2022-08-23T00:59:19.662Z,1012.95
2022-08-23T01:00:19.958Z,1012.94
2022-08-23T01:01:20.361Z,1012.96
2022-08-23T01:02:20.657Z,1012.93
2022-08-23T01:03:20.872Z,1012.90
2022-08-23T01:04:21.199Z,1012.88
2022-08-23T01:05:21.558Z,1012.87
2022-08-23T01:06:21.791Z,1012.83
2022-08-23T01:07:22.090Z,1012.82
2022-08-23T01:08:22.429Z,1012.83
2022-08-23T01:09:22.752Z,1012.76
2022-08-23T01:10:23.094Z,1012.79
2022-08-23T01:11:23.431Z,1012.81
2022-08-23T01:12:32.942Z,1012.84
2022-08-23T01:13:25.090Z,1012.88
2022-08-23T01:14:24.376Z,1012.83
2022-08-23T01:15:24.712Z,1012.83
2022-08-23T01:16:25.063Z,1012.80
2022-08-23T01:17:25.296Z,1012.81
2022-08-23T01:18:25.505Z,1012.76
2022-08-23T01:19:25.735Z,1012.76
2022-08-23T01:20:27.185Z,1012.78
2022-08-23T01:21:26.379Z,1012.81
2022-08-23T01:22:26.702Z,1012.74
2022-08-23T01:23:27.035Z,1012.75
2022-08-23T01:25:07.303Z,1012.73
2022-08-23T01:25:28.667Z,1012.77
2022-08-23T01:26:27.946Z,1012.75
2022-08-23T01:27:28.310Z,1012.71
2022-08-23T01:28:28.617Z,1012.74
2022-08-23T01:29:28.939Z,1012.70
2022-08-23T01:30:29.269Z,1012.75
2022-08-23T01:31:29.619Z,1012.71
2022-08-23T01:32:29.988Z,1012.71
2022-08-23T01:33:30.191Z,1012.78
2022-08-23T01:34:30.539Z,1012.82
2022-08-23T01:35:30.801Z,1012.78
2022-08-23T01:36:31.161Z,1012.85
2022-08-23T01:37:31.401Z,1012.85
2022-08-23T01:38:32.740Z,1012.84
2022-08-23T01:39:31.906Z,1012.90
2022-08-23T01:40:32.252Z,1012.84
2022-08-23T01:41:32.465Z,1012.87
2022-08-23T01:42:32.832Z,1012.90
2022-08-23T01:43:33.031Z,1012.88
2022-08-23T01:44:33.354Z,1012.84
2022-08-23T01:45:33.673Z,1012.84
2022-08-23T01:46:34.056Z,1012.83
2022-08-23T01:47:34.256Z,1012.82
2022-08-23T01:48:34.596Z,1012.82
2022-08-23T01:49:34.936Z,1012.78
2022-08-23T01:50:35.277Z,1012.88
2022-08-23T01:51:35.527Z,1012.84
2022-08-23T01:52:35.735Z,1012.83
2022-08-23T01:53:36.058Z,1012.83
2022-08-23T01:54:36.417Z,1012.81
2022-08-23T01:55:36.639Z,1012.82
2022-08-23T01:56:39.271Z,1012.86
2022-08-23T01:57:37.245Z,1012.84
2022-08-23T01:58:37.616Z,1012.87
2022-08-23T01:59:37.837Z,1012.86
2022-08-23T02:00:38.191Z,1012.87
2022-08-23T02:01:38.471Z,1012.95
2022-08-23T02:02:38.677Z,1012.94
2022-08-23T02:03:39.006Z,1012.95
2022-08-23T02:04:39.359Z,1012.94
2022-08-23T02:05:39.614Z,1012.92
2022-08-23T02:06:39.821Z,1012.88
2022-08-23T02:07:40.164Z,1012.94
2022-08-23T02:08:40.452Z,1012.90
2022-08-23T02:09:40.795Z,1012.93
2022-08-23T02:10:41.122Z,1012.96
2022-08-23T02:11:41.344Z,1012.90
2022-08-23T02:12:41.571Z,1012.98
2022-08-23T02:13:41.922Z,1012.97
2022-08-23T02:14:42.255Z,1012.96
2022-08-23T02:15:42.464Z,1012.98
2022-08-23T02:16:42.694Z,1012.94
2022-08-23T02:17:43.997Z,1012.89
2022-08-23T02:18:43.285Z,1012.89
2022-08-23T02:19:43.656Z,1012.94
2022-08-23T02:20:43.942Z,1012.94
2022-08-23T02:21:44.225Z,1012.90
2022-08-23T02:22:44.446Z,1012.89
2022-08-23T02:23:44.675Z,1012.95
2022-08-23T02:24:44.908Z,1012.93
2022-08-23T02:25:45.130Z,1012.88
2022-08-23T02:26:46.483Z,1012.91
2022-08-23T02:27:45.830Z,1012.94
2022-08-23T02:28:46.046Z,1012.95
2022-08-23T02:29:46.401Z,1012.90
2022-08-23T02:30:46.659Z,1012.89
2022-08-23T02:31:46.929Z,1012.95
2022-08-23T02:32:47.265Z,1012.88
2022-08-23T02:35:05.357Z,1012.91
2022-08-23T02:36:04.138Z,1012.83
2022-08-23T02:37:04.405Z,1012.84
2022-08-23T02:38:04.622Z,1012.86
2022-08-23T02:39:04.981Z,1012.83
2022-08-23T02:40:05.258Z,1012.84
2022-08-23T02:41:05.489Z,1012.89
2022-08-23T02:42:05.808Z,1012.89
2022-08-23T02:43:06.184Z,1012.85
2022-08-23T02:44:06.390Z,1012.88
2022-08-23T02:45:06.757Z,1012.89
2022-08-23T02:46:06.984Z,1012.94
2022-08-23T02:47:07.202Z,1012.94
2022-08-23T02:48:07.560Z,1012.96
2022-08-23T02:49:07.844Z,1012.92
2022-08-23T02:50:08.072Z,1012.92
2022-08-23T02:51:08.329Z,1012.94
2022-08-23T02:52:08.545Z,1012.95
2022-08-23T02:53:08.802Z,1012.99
2022-08-23T02:54:09.045Z,1012.97
2022-08-23T02:55:09.304Z,1012.97
2022-08-23T02:56:12.968Z,1012.97
2022-08-23T02:57:10.865Z,1013.00
2022-08-23T02:58:10.136Z,1012.98
2022-08-23T02:59:10.509Z,1013.04
2022-08-23T03:00:10.737Z,1012.96
2022-08-23T03:01:10.970Z,1012.99
2022-08-23T03:02:11.287Z,1013.00
2022-08-23T03:03:11.567Z,1012.96
2022-08-23T03:04:11.800Z,1012.95
2022-08-23T03:05:12.038Z,1012.98
2022-08-23T03:06:24.393Z,1012.96
2022-08-23T03:07:13.592Z,1012.98
2022-08-23T03:08:12.870Z,1012.97
2022-08-23T03:09:13.210Z,1012.98
2022-08-23T03:10:13.586Z,1012.97
2022-08-23T03:11:13.793Z,1012.99
2022-08-23T03:12:14.151Z,1012.97
2022-08-23T03:13:14.393Z,1013.00
2022-08-23T03:14:14.623Z,1012.99
2022-08-23T03:15:14.886Z,1013.04
2022-08-23T03:16:15.122Z,1013.02
2022-08-23T03:17:15.349Z,1012.95
2022-08-23T03:18:15.682Z,1012.99
2022-08-23T03:19:16.024Z,1012.99
2022-08-23T03:20:16.384Z,1012.99
2022-08-23T03:21:16.603Z,1012.96
2022-08-23T03:22:16.967Z,1012.98
2022-08-23T03:23:17.207Z,1013.00
2022-08-23T03:24:17.434Z,1012.99
2022-08-23T03:25:17.676Z,1013.05
2022-08-23T03:26:17.916Z,1013.01
2022-08-23T03:27:18.136Z,1012.98
2022-08-23T03:28:18.487Z,1013.03
2022-08-23T03:29:18.707Z,1012.99
2022-08-23T03:30:20.045Z,1013.02
2022-08-23T03:31:19.307Z,1013.03
2022-08-23T03:32:19.668Z,1013.10
2022-08-23T03:33:19.959Z,1013.05
2022-08-23T03:34:20.289Z,1013.11
2022-08-23T03:35:20.618Z,1013.13
2022-08-23T03:36:20.958Z,1013.07
2022-08-23T03:37:22.279Z,1013.11
2022-08-23T03:38:21.548Z,1013.06
2022-08-23T03:39:21.885Z,1013.12
2022-08-23T03:40:22.285Z,1013.08
2022-08-23T03:41:22.491Z,1013.04
2022-08-23T03:42:22.841Z,1013.10
2022-08-23T03:43:24.152Z,1013.09
2022-08-23T03:44:23.421Z,1013.15
2022-08-23T03:45:23.789Z,1013.07
2022-08-23T03:46:24.064Z,1013.11
2022-08-23T03:47:24.323Z,1013.16
2022-08-23T03:48:24.543Z,1013.12
2022-08-23T03:49:24.946Z,1013.17
2022-08-23T03:50:25.180Z,1013.19
2022-08-23T03:51:25.426Z,1013.20
2022-08-23T03:52:25.773Z,1013.21
2022-08-23T03:53:26.012Z,1013.12
2022-08-23T03:54:26.336Z,1013.22
2022-08-23T03:55:26.547Z,1013.22
2022-08-23T03:56:26.907Z,1013.23
2022-08-23T03:57:27.125Z,1013.16
2022-08-23T03:58:27.357Z,1013.16
2022-08-23T03:59:27.716Z,1013.16
2022-08-23T04:00:27.957Z,1013.20
2022-08-23T04:01:28.904Z,1013.20
2022-08-23T04:02:28.440Z,1013.14
2022-08-23T04:03:28.796Z,1013.25
2022-08-23T04:04:29.550Z,1013.23
2022-08-23T04:05:29.329Z,1013.18
2022-08-23T04:06:29.710Z,1013.23
2022-08-23T04:07:29.928Z,1013.23
2022-08-23T04:08:33.470Z,1013.19
2022-08-23T04:09:30.606Z,1013.17
2022-08-23T04:10:30.843Z,1013.13
2022-08-23T04:11:31.093Z,1013.12
2022-08-23T04:12:31.362Z,1013.13
2022-08-23T04:13:31.606Z,1013.11
2022-08-23T04:14:31.863Z,1013.09
2022-08-23T04:15:32.105Z,1013.08
2022-08-23T04:16:32.344Z,1013.14
2022-08-23T04:17:32.815Z,1013.04
2022-08-23T04:18:32.874Z,1013.04
2022-08-23T04:19:33.126Z,1013.09
2022-08-23T04:20:33.376Z,1013.06
2022-08-23T04:21:33.657Z,1013.05
2022-08-23T04:22:33.916Z,1013.12
2022-08-23T04:23:34.167Z,1013.10
2022-08-23T04:24:34.405Z,1013.12
2022-08-23T04:25:35.858Z,1013.19
2022-08-23T04:26:34.870Z,1013.22
2022-08-23T04:27:35.098Z,1013.25
2022-08-23T04:28:35.330Z,1013.26
2022-08-23T04:29:35.587Z,1013.27
2022-08-23T04:30:35.832Z,1013.30
2022-08-23T04:31:36.078Z,1013.35
2022-08-23T04:32:36.435Z,1013.33
2022-08-23T04:33:40.287Z,1013.33
2022-08-23T04:34:37.080Z,1013.36
2022-08-23T04:35:37.342Z,1013.32
2022-08-23T04:36:37.630Z,1013.35
2022-08-23T04:37:37.895Z,1013.37
2022-08-23T04:38:38.162Z,1013.36
2022-08-23T04:39:38.411Z,1013.40
2022-08-23T04:40:38.639Z,1013.40
2022-08-23T04:41:38.881Z,1013.39
2022-08-23T04:42:39.124Z,1013.46
2022-08-23T04:43:39.366Z,1013.46
2022-08-23T04:44:39.640Z,1013.44
2022-08-23T04:45:39.963Z,1013.45
2022-08-23T04:46:40.195Z,1013.45
2022-08-23T04:47:40.424Z,1013.40
2022-08-23T04:48:40.694Z,1013.37
2022-08-23T04:49:40.970Z,1013.44
2022-08-23T04:50:41.217Z,1013.48
2022-08-23T04:51:41.457Z,1013.45
2022-08-23T04:52:41.707Z,1013.47
2022-08-23T04:53:41.956Z,1013.52
2022-08-23T04:54:42.228Z,1013.51
2022-08-23T04:55:42.458Z,1013.52
2022-08-23T04:56:42.739Z,1013.52
2022-08-23T04:57:42.998Z,1013.51
2022-08-23T04:58:43.236Z,1013.52
2022-08-23T04:59:43.488Z,1013.52
2022-08-23T05:00:46.239Z,1013.53
2022-08-23T05:01:45.060Z,1013.53
2022-08-23T05:02:44.357Z,1013.54
2022-08-23T05:03:44.601Z,1013.55
2022-08-23T05:04:44.870Z,1013.52
2022-08-23T05:05:45.110Z,1013.52
2022-08-23T05:06:45.349Z,1013.52
2022-08-23T05:07:45.590Z,1013.52
2022-08-23T05:08:45.832Z,1013.54
2022-08-23T05:09:46.079Z,1013.51
2022-08-23T05:10:46.312Z,1013.54
2022-08-23T05:11:46.553Z,1013.51
2022-08-23T05:12:46.793Z,1013.58
2022-08-23T05:13:47.034Z,1013.62
2022-08-23T05:14:47.941Z,1013.60
2022-08-23T05:15:47.603Z,1013.58
2022-08-23T05:16:47.835Z,1013.61
2022-08-23T05:17:48.124Z,1013.61
2022-08-23T05:18:48.356Z,1013.59
2022-08-23T05:19:48.649Z,1013.61
2022-08-23T05:20:48.978Z,1013.65
2022-08-23T05:21:49.964Z,1013.62
2022-08-23T05:22:49.508Z,1013.62
2022-08-23T05:23:51.066Z,1013.58
2022-08-23T05:24:51.095Z,1013.60
2022-08-23T05:25:51.553Z,1013.61
2022-08-23T05:26:50.659Z,1013.63
2022-08-23T05:27:50.929Z,1013.63
2022-08-23T05:28:51.182Z,1013.68
2022-08-23T05:29:51.459Z,1013.73
2022-08-23T05:30:56.456Z,1013.75
2022-08-23T05:31:53.071Z,1013.72
2022-08-23T05:32:52.403Z,1013.74
2022-08-23T05:33:52.691Z,1013.71
2022-08-23T05:34:52.994Z,1013.71
2022-08-23T05:35:53.292Z,1013.65
2022-08-23T05:36:55.652Z,1013.64
2022-08-23T05:37:53.865Z,1013.68
2022-08-23T05:38:54.161Z,1013.66
2022-08-23T05:39:54.490Z,1013.72
2022-08-23T05:40:54.977Z,1013.68
2022-08-23T05:41:55.068Z,1013.75
2022-08-23T05:42:55.339Z,1013.72
2022-08-23T05:43:55.598Z,1013.73
2022-08-23T05:44:55.866Z,1013.74
2022-08-23T05:45:56.095Z,1013.72
2022-08-23T05:46:56.406Z,1013.71
2022-08-23T05:47:56.666Z,1013.73
2022-08-23T05:48:56.982Z,1013.76
2022-08-23T05:49:57.247Z,1013.67
2022-08-23T05:50:57.516Z,1013.69
2022-08-23T05:51:57.761Z,1013.69
2022-08-23T05:52:58.018Z,1013.68
2022-08-23T05:53:58.301Z,1013.72
2022-08-23T05:54:58.590Z,1013.70
2022-08-23T05:55:58.841Z,1013.70
2022-08-23T05:56:59.103Z,1013.75
2022-08-23T05:57:59.455Z,1013.75
2022-08-23T05:59:00.143Z,1013.64
2022-08-23T05:59:59.902Z,1013.70
2022-08-23T06:01:00.224Z,1013.72
2022-08-23T06:02:00.492Z,1013.69
2022-08-23T06:03:00.753Z,1013.66
2022-08-23T06:04:01.035Z,1013.73
2022-08-23T06:05:01.309Z,1013.71
2022-08-23T06:06:01.552Z,1013.71
2022-08-23T06:07:01.794Z,1013.72
2022-08-23T06:08:02.307Z,1013.76
2022-08-23T06:09:02.353Z,1013.74
2022-08-23T06:10:02.604Z,1013.67
2022-08-23T06:11:02.854Z,1013.73
2022-08-23T06:12:03.105Z,1013.78
2022-08-23T06:13:03.375Z,1013.76
2022-08-23T06:14:03.682Z,1013.77
2022-08-23T06:15:03.926Z,1013.84
2022-08-23T06:16:14.891Z,1013.76
2022-08-23T06:17:05.398Z,1013.77
2022-08-23T06:18:04.731Z,1013.88
2022-08-23T06:19:04.990Z,1013.89
2022-08-23T06:20:05.286Z,1013.86
2022-08-23T06:21:05.539Z,1013.83
2022-08-23T06:22:05.793Z,1013.84
2022-08-23T06:23:06.044Z,1013.81
2022-08-23T06:24:06.287Z,1013.79
2022-08-23T06:25:09.605Z,1013.79
2022-08-23T06:26:06.882Z,1013.81
2022-08-23T06:27:07.161Z,1013.74
2022-08-23T06:28:07.403Z,1013.83
2022-08-23T06:29:07.698Z,1013.83
2022-08-23T06:30:07.953Z,1013.80
2022-08-23T06:31:09.368Z,1013.82
2022-08-23T06:32:08.651Z,1013.83
2022-08-23T06:33:08.944Z,1013.79
2022-08-23T06:34:09.234Z,1013.84
2022-08-23T06:35:32.858Z,1013.85
2022-08-23T06:36:10.871Z,1013.86
2022-08-23T06:37:10.188Z,1013.89
2022-08-23T06:38:10.450Z,1013.94
2022-08-23T06:39:10.714Z,1013.89
2022-08-23T06:40:11.008Z,1013.88
2022-08-23T06:41:11.266Z,1013.92
2022-08-23T06:42:36.481Z,1013.88
2022-08-23T06:43:12.838Z,1013.89
2022-08-23T06:44:12.174Z,1013.86
2022-08-23T06:45:12.446Z,1013.93
2022-08-23T06:46:12.746Z,1013.91
2022-08-23T06:47:13.000Z,1013.87
2022-08-23T06:48:18.272Z,1013.89
2022-08-23T06:49:14.569Z,1013.97
2022-08-23T06:50:13.892Z,1013.94
2022-08-23T06:51:14.139Z,1013.94
2022-08-23T06:52:14.412Z,1013.98
2022-08-23T06:53:14.717Z,1013.97
2022-08-23T06:54:14.976Z,1013.96
2022-08-23T06:55:15.232Z,1013.97
2022-08-23T06:56:15.542Z,1013.97
2022-08-23T06:57:15.779Z,1013.90
2022-08-23T06:58:16.033Z,1013.98
2022-08-23T06:59:16.305Z,1013.89
2022-08-23T07:00:21.524Z,1013.87
2022-08-23T07:01:42.156Z,1013.87
2022-08-23T07:02:18.296Z,1013.89
2022-08-23T07:03:17.396Z,1013.91
2022-08-23T07:04:17.656Z,1013.89
2022-08-23T07:05:17.956Z,1013.99
2022-08-23T07:06:18.217Z,1013.97
2022-08-23T07:07:18.476Z,1013.91
2022-08-23T07:08:18.746Z,1013.91
2022-08-23T07:09:19.031Z,1013.92
2022-08-23T07:10:19.328Z,1013.92
2022-08-23T07:11:19.579Z,1013.91
2022-08-23T07:12:19.880Z,1013.90
2022-08-23T07:13:20.129Z,1013.88
2022-08-23T07:14:20.390Z,1013.83
2022-08-23T07:15:20.707Z,1013.81
2022-08-23T07:16:21.097Z,1013.84
2022-08-23T07:17:21.181Z,1013.82
2022-08-23T07:18:21.430Z,1013.86
2022-08-23T07:19:21.694Z,1013.85
2022-08-23T07:20:23.024Z,1013.83
2022-08-23T07:21:22.332Z,1013.72
2022-08-23T07:22:22.588Z,1013.79
2022-08-23T07:23:22.843Z,1013.79
2022-08-23T07:24:23.104Z,1013.71
2022-08-23T07:25:23.366Z,1013.77
2022-08-23T07:26:23.646Z,1013.79
2022-08-23T07:27:23.935Z,1013.78
2022-08-23T07:28:24.232Z,1013.75
2022-08-23T07:29:24.468Z,1013.76
2022-08-23T07:30:24.759Z,1013.80
2022-08-23T07:31:25.002Z,1013.85
2022-08-23T07:32:25.239Z,1013.83
2022-08-23T07:33:25.487Z,1013.83
2022-08-23T07:34:25.788Z,1013.85
2022-08-23T07:35:26.078Z,1013.83
2022-08-23T07:36:26.337Z,1013.83
2022-08-23T07:37:26.606Z,1013.78
2022-08-23T07:38:30.648Z,1013.84
2022-08-23T07:39:27.138Z,1013.79
2022-08-23T07:40:27.789Z,1013.79
2022-08-23T07:41:27.620Z,1013.83
2022-08-23T07:42:27.862Z,1013.86
2022-08-23T07:43:28.110Z,1013.80
2022-08-23T07:44:28.413Z,1013.80
2022-08-23T07:45:28.671Z,1013.88
2022-08-23T07:46:28.930Z,1013.91
2022-08-23T07:47:29.193Z,1013.87
2022-08-23T07:48:50.636Z,1013.85
2022-08-23T07:49:30.795Z,1013.86
2022-08-23T07:50:30.365Z,1013.88
2022-08-23T07:51:30.385Z,1013.89
2022-08-23T07:52:30.636Z,1013.95
2022-08-23T07:53:37.434Z,1014.00
2022-08-23T07:54:32.147Z,1013.93
2022-08-23T07:55:31.449Z,1013.93
2022-08-23T07:56:31.800Z,1013.93
2022-08-23T07:57:32.038Z,1013.92
2022-08-23T07:58:32.307Z,1013.98
2022-08-23T07:59:34.663Z,1013.96
2022-08-23T08:00:32.846Z,1013.98
2022-08-23T08:01:33.146Z,1013.96
2022-08-23T08:02:33.441Z,1013.94
2022-08-23T08:03:33.717Z,1013.98
2022-08-23T08:04:34.002Z,1013.97
2022-08-23T08:05:34.231Z,1013.92
2022-08-23T08:06:34.472Z,1013.93
2022-08-23T08:07:35.476Z,1013.94
2022-08-23T08:08:35.094Z,1013.95
2022-08-23T08:09:35.403Z,1013.95
2022-08-23T08:10:35.654Z,1013.90
2022-08-23T08:11:36.005Z,1013.96
2022-08-23T08:12:36.236Z,1013.91
2022-08-23T08:13:36.496Z,1013.93
2022-08-23T08:14:37.353Z,1013.95
2022-08-23T08:15:37.097Z,1014.03
2022-08-23T08:16:37.353Z,1013.96
2022-08-23T08:17:37.639Z,1014.01
2022-08-23T08:18:37.888Z,1013.99
2022-08-23T08:19:38.163Z,1014.08
2022-08-23T08:20:38.417Z,1014.05
2022-08-23T08:21:39.681Z,1014.03
2022-08-23T08:22:39.030Z,1013.99
2022-08-23T08:23:39.269Z,1014.03
2022-08-23T08:24:39.529Z,1013.99
2022-08-23T08:25:39.809Z,1014.02
2022-08-23T08:26:40.087Z,1014.00
2022-08-23T08:27:40.341Z,1014.02
2022-08-23T08:28:40.626Z,1013.96
2022-08-23T08:29:40.913Z,1013.96
2022-08-23T08:30:41.179Z,1013.95
2022-08-23T08:31:41.465Z,1013.94
2022-08-23T08:32:47.223Z,1013.93
2022-08-23T08:33:42.962Z,1013.94
2022-08-23T08:34:42.296Z,1013.88
2022-08-23T08:35:42.553Z,1013.89
2022-08-23T08:36:42.875Z,1013.99
2022-08-23T08:37:43.135Z,1013.93
2022-08-23T08:38:48.231Z,1013.95
2022-08-23T08:39:44.764Z,1013.92
2022-08-23T08:40:44.074Z,1013.91
2022-08-23T08:41:44.326Z,1014.04
2022-08-23T08:42:44.738Z,1014.02
2022-08-23T08:43:44.965Z,1013.94
2022-08-23T08:44:45.307Z,1013.96
2022-08-23T08:45:58.627Z,1014.01
2022-08-23T08:46:47.619Z,1013.99
2022-08-23T08:47:46.837Z,1014.06
2022-08-23T08:48:46.329Z,1014.00
2022-08-23T08:49:46.640Z,1013.96
2022-08-23T08:50:46.911Z,1013.89
2022-08-23T08:51:47.942Z,1013.94
2022-08-23T08:52:47.421Z,1013.93
2022-08-23T08:53:48.108Z,1013.97
2022-08-23T08:54:48.644Z,1013.88
2022-08-23T08:55:48.999Z,1013.92
2022-08-23T08:56:49.323Z,1013.92
2022-08-23T08:57:49.514Z,1013.90
2022-08-23T08:58:49.024Z,1013.90
2022-08-23T08:59:49.304Z,1013.89
2022-08-23T09:00:53.832Z,1013.89
2022-08-23T09:01:50.851Z,1013.89
2022-08-23T09:02:50.359Z,1013.91
2022-08-23T09:03:50.869Z,1013.86
2022-08-23T09:04:50.667Z,1013.92
2022-08-23T09:05:50.913Z,1013.96
2022-08-23T09:06:51.200Z,1013.95
2022-08-23T09:07:51.439Z,1013.97
2022-08-23T09:08:51.707Z,1013.96
2022-08-23T09:09:51.970Z,1014.01
2022-08-23T09:10:52.221Z,1013.97
2022-08-23T09:12:00.007Z,1013.88
2022-08-23T09:12:52.730Z,1014.02
2022-08-23T09:13:53.001Z,1013.95
2022-08-23T09:14:53.259Z,1014.03
2022-08-23T09:15:53.634Z,1014.02
2022-08-23T09:16:53.741Z,1013.98
2022-08-23T09:17:54.003Z,1013.96
2022-08-23T09:18:54.346Z,1013.94
2022-08-23T09:19:54.631Z,1013.95
2022-08-23T09:20:54.901Z,1013.95
2022-08-23T09:21:55.148Z,1013.94
2022-08-23T09:22:55.409Z,1013.90
2022-08-23T09:24:00.308Z,1013.92
2022-08-23T09:24:56.991Z,1013.84
2022-08-23T09:25:59.872Z,1013.97
2022-08-23T09:26:57.633Z,1013.93
2022-08-23T09:27:56.997Z,1014.00
2022-08-23T09:28:57.249Z,1013.89
2022-08-23T09:29:57.519Z,1013.90
2022-08-23T09:30:57.842Z,1013.92
2022-08-23T09:31:58.218Z,1013.91
2022-08-23T09:32:58.402Z,1013.84
2022-08-23T09:33:58.679Z,1013.88
2022-08-23T09:34:58.962Z,1013.91
2022-08-23T09:35:59.205Z,1013.84
2022-08-23T09:36:59.452Z,1013.83
2022-08-23T09:37:59.872Z,1013.83
2022-08-23T09:39:00.129Z,1013.85
2022-08-23T09:40:00.507Z,1013.85
2022-08-23T09:41:00.654Z,1013.82
2022-08-23T09:42:00.896Z,1013.85
2022-08-23T09:43:01.156Z,1013.85
2022-08-23T09:44:01.425Z,1013.82
2022-08-23T09:45:01.679Z,1013.83
2022-08-23T09:46:02.089Z,1013.86
2022-08-23T09:47:02.266Z,1013.87
2022-08-23T09:48:02.643Z,1013.85
2022-08-23T09:49:02.888Z,1013.92
2022-08-23T09:50:03.151Z,1013.91
2022-08-23T09:51:03.409Z,1013.92
2022-08-23T09:52:03.679Z,1013.90
2022-08-23T09:53:04.662Z,1013.85
2022-08-23T09:54:04.356Z,1013.89
2022-08-23T09:55:04.619Z,1013.88
2022-08-23T09:56:04.881Z,1013.83
2022-08-23T09:57:05.160Z,1013.84
2022-08-23T09:58:05.410Z,1013.91
2022-08-23T09:59:05.672Z,1013.86
2022-08-23T10:00:05.954Z,1013.88
2022-08-23T10:01:06.234Z,1013.83
2022-08-23T10:02:06.550Z,1013.84
2022-08-23T10:03:06.738Z,1013.82
2022-08-23T10:04:07.044Z,1013.80
2022-08-23T10:05:07.964Z,1013.78
2022-08-23T10:06:08.606Z,1013.87
2022-08-23T10:07:07.785Z,1013.82
2022-08-23T10:08:10.716Z,1013.80
2022-08-23T10:09:08.318Z,1013.87
2022-08-23T10:10:08.587Z,1013.85
2022-08-23T10:11:08.836Z,1013.92
2022-08-23T10:12:09.066Z,1013.88
2022-08-23T10:13:09.398Z,1013.87
2022-08-23T10:14:09.673Z,1013.90
2022-08-23T10:15:09.954Z,1013.89
2022-08-23T10:16:10.246Z,1013.94
2022-08-23T10:17:10.530Z,1013.85
2022-08-23T10:18:10.779Z,1013.91
2022-08-23T10:19:11.055Z,1013.93
2022-08-23T10:20:11.291Z,1013.85
2022-08-23T10:21:11.650Z,1013.83
2022-08-23T10:22:11.835Z,1013.89
2022-08-23T10:23:12.082Z,1014.01
2022-08-23T10:24:12.348Z,1013.88
2022-08-23T10:25:12.621Z,1013.86
2022-08-23T10:26:13.845Z,1013.87
2022-08-23T10:27:13.174Z,1013.84
2022-08-23T10:28:13.435Z,1013.90
2022-08-23T10:29:13.709Z,1013.91
2022-08-23T10:30:14.046Z,1013.92
2022-08-23T10:31:14.290Z,1013.87
2022-08-23T10:32:14.557Z,1013.89
2022-08-23T10:33:18.305Z,1013.88
2022-08-23T10:34:15.322Z,1013.83
2022-08-23T10:35:15.431Z,1013.89
2022-08-23T10:36:15.824Z,1013.92
2022-08-23T10:37:15.944Z,1013.90
2022-08-23T10:38:17.000Z,1013.95
2022-08-23T10:39:17.202Z,1013.85
2022-08-23T10:40:16.812Z,1013.90
2022-08-23T10:41:17.087Z,1013.90
2022-08-23T10:42:17.340Z,1014.00
2022-08-23T10:43:17.601Z,1013.90
2022-08-23T10:44:17.880Z,1013.87
2022-08-23T10:45:18.153Z,1013.92
2022-08-23T10:46:18.473Z,1013.91
2022-08-23T10:47:18.724Z,1013.95
2022-08-23T10:48:21.445Z,1013.99
2022-08-23T10:49:19.332Z,1013.93
2022-08-23T10:50:19.696Z,1013.96
2022-08-23T10:51:23.174Z,1014.01
2022-08-23T10:52:21.080Z,1013.98
2022-08-23T10:53:20.386Z,1014.03
2022-08-23T10:54:20.676Z,1013.99
2022-08-23T10:55:20.949Z,1013.88
2022-08-23T10:56:21.267Z,1013.92
2022-08-23T10:57:21.539Z,1013.96
2022-08-23T10:58:21.888Z,1013.96
2022-08-23T10:59:22.186Z,1014.01
2022-08-23T11:00:22.452Z,1013.92
2022-08-23T11:01:22.755Z,1013.92
2022-08-23T11:02:23.055Z,1013.93
2022-08-23T11:03:26.863Z,1013.95
2022-08-23T11:04:24.785Z,1013.97
2022-08-23T11:05:23.852Z,1013.92
2022-08-23T11:06:24.152Z,1013.97
2022-08-23T11:07:24.428Z,1013.95
2022-08-23T11:08:24.706Z,1013.94
2022-08-23T11:09:25.866Z,1013.98
2022-08-23T11:10:25.305Z,1013.91
2022-08-23T11:11:25.566Z,1013.90
2022-08-23T11:12:25.847Z,1013.90
2022-08-23T11:13:26.131Z,1013.96
2022-08-23T11:14:26.416Z,1013.88
2022-08-23T11:15:26.688Z,1013.98
2022-08-23T11:16:26.938Z,1013.89
2022-08-23T11:17:27.208Z,1013.94
2022-08-23T11:18:31.316Z,1014.01
2022-08-23T11:19:28.729Z,1013.97
2022-08-23T11:20:28.059Z,1013.98
2022-08-23T11:21:28.331Z,1013.97
2022-08-23T11:22:28.580Z,1014.02
2022-08-23T11:23:28.841Z,1013.96
2022-08-23T11:24:29.142Z,1013.96
2022-08-23T11:25:29.434Z,1013.93
2022-08-23T11:26:29.687Z,1014.00
2022-08-23T11:27:29.942Z,1013.98
2022-08-23T11:28:30.491Z,1014.00
2022-08-23T11:29:30.570Z,1013.97
2022-08-23T11:30:30.837Z,1013.96
2022-08-23T11:31:31.113Z,1013.97
2022-08-23T11:32:31.373Z,1014.00
2022-08-23T11:33:31.697Z,1014.02
2022-08-23T11:34:31.988Z,1014.00
2022-08-23T11:35:32.435Z,1013.99
2022-08-23T11:36:32.557Z,1013.93
2022-08-23T11:37:32.826Z,1013.90
2022-08-23T11:38:33.077Z,1013.93
2022-08-23T11:39:33.366Z,1014.00
2022-08-23T11:40:33.723Z,1014.05
2022-08-23T11:41:34.021Z,1013.94
2022-08-23T11:42:34.159Z,1013.91
2022-08-23T11:43:34.577Z,1013.96
2022-08-23T11:44:34.659Z,1013.92
2022-08-23T11:45:34.892Z,1013.94
2022-08-23T11:46:35.152Z,1013.94
2022-08-23T11:47:35.396Z,1013.85
2022-08-23T11:48:35.629Z,1013.90
2022-08-23T11:49:35.919Z,1014.01
2022-08-23T11:50:36.173Z,1013.97
2022-08-23T11:51:36.448Z,1013.93
2022-08-23T11:52:36.705Z,1013.93
2022-08-23T11:53:36.993Z,1013.90
2022-08-23T11:54:37.250Z,1013.91
2022-08-23T11:55:37.505Z,1013.94
2022-08-23T11:56:37.755Z,1014.06
2022-08-23T11:57:37.999Z,1013.97
2022-08-23T11:58:38.305Z,1013.98
2022-08-23T11:59:41.742Z,1013.95
2022-08-23T12:00:38.799Z,1014.06
2022-08-23T12:01:39.059Z,1013.91
2022-08-23T12:02:39.412Z,1013.96
2022-08-23T12:03:39.647Z,1014.02
2022-08-23T12:04:40.003Z,1013.86
2022-08-23T12:05:40.119Z,1013.95
2022-08-23T12:06:40.636Z,1013.96
2022-08-23T12:07:40.629Z,1013.94
2022-08-23T12:08:40.898Z,1013.93
2022-08-23T12:09:41.219Z,1013.97